createdAt,value
2018-12-21T00:00:24.772Z,74.91
2018-12-21T00:02:54.961Z,74.94
2018-12-21T00:05:25.714Z,74.30
2018-12-21T00:07:56.056Z,74.69
2018-12-21T00:10:26.218Z,73.81
2018-12-21T00:12:56.429Z,73.49
2018-12-21T00:15:26.779Z,73.31
2018-12-21T00:17:57.047Z,73.04
2018-12-21T00:20:27.367Z,73.00
2018-12-21T00:22:57.649Z,72.86
2018-12-21T00:25:27.837Z,72.39
2018-12-21T00:27:57.913Z,72.82
2018-12-21T00:30:27.177Z,72.79
2018-12-21T00:33:02.723Z,72.65
2018-12-21T00:35:38.227Z,71.89
2018-12-21T00:38:13.308Z,72.26
2018-12-21T00:40:48.723Z,71.98
2018-12-21T00:43:35.115Z,72.30
2018-12-21T00:46:13.778Z,72.16
2018-12-21T00:48:44.116Z,72.05
2018-12-21T00:51:14.579Z,72.09
2018-12-21T00:53:45.424Z,71.78
2018-12-21T00:56:15.536Z,72.54
2018-12-21T00:58:45.678Z,73.12
2018-12-21T01:01:16.052Z,73.04
2018-12-21T01:03:46.368Z,73.82
2018-12-21T01:06:16.832Z,74.37
2018-12-21T01:08:47.238Z,74.64
2018-12-21T01:11:17.608Z,74.30
2018-12-21T01:13:47.769Z,75.31
2018-12-21T01:16:18.371Z,75.17
2018-12-21T01:18:48.572Z,76.23
2018-12-21T01:21:19.237Z,76.57
2018-12-21T01:23:50.103Z,76.47
2018-12-21T01:26:20.520Z,76.51
2018-12-21T01:28:51.294Z,76.37
2018-12-21T01:31:21.580Z,75.51
2018-12-21T01:33:51.854Z,75.63
2018-12-21T01:36:22.374Z,75.26
2018-12-21T01:38:52.585Z,75.55
2018-12-21T01:41:22.904Z,74.94
2018-12-21T01:43:53.777Z,74.47
2018-12-21T01:46:24.080Z,73.86
2018-12-21T01:48:54.360Z,74.35
2018-12-21T01:51:24.689Z,73.68
2018-12-21T01:53:54.914Z,73.12
2018-12-21T01:56:25.283Z,73.76
2018-12-21T01:58:55.441Z,73.52
2018-12-21T02:01:25.662Z,73.83
2018-12-21T02:03:55.748Z,73.85
2018-12-21T02:06:26.127Z,73.76
2018-12-21T02:08:56.259Z,73.31
2018-12-21T02:11:26.602Z,73.64
2018-12-21T02:13:56.710Z,73.69
2018-12-21T02:16:28.924Z,74.10
2018-12-21T02:18:59.205Z,73.64
2018-12-21T02:21:29.395Z,73.79
2018-12-21T02:23:59.624Z,74.15
2018-12-21T02:26:29.934Z,73.93
2018-12-21T02:29:00.319Z,74.45
2018-12-21T02:31:30.576Z,74.70
2018-12-21T02:34:00.804Z,74.70
2018-12-21T02:36:31.013Z,75.34
2018-12-21T02:39:01.683Z,74.82
2018-12-21T02:41:33.082Z,74.92
2018-12-21T02:44:03.770Z,74.54
2018-12-21T02:46:33.841Z,75.09
2018-12-21T02:49:03.975Z,75.29
2018-12-21T02:51:34.213Z,75.65
2018-12-21T02:54:05.115Z,75.03
2018-12-21T02:56:35.510Z,75.31
2018-12-21T02:59:05.704Z,75.19
2018-12-21T03:01:36.037Z,74.33
2018-12-21T03:04:06.718Z,73.99
2018-12-21T03:06:36.909Z,73.94
2018-12-21T03:09:10.279Z,74.15
2018-12-21T03:11:40.464Z,74.64
2018-12-21T03:14:11.306Z,74.59
2018-12-21T03:16:41.413Z,75.20
2018-12-21T03:19:12.004Z,75.21
2018-12-21T03:21:42.298Z,75.74
2018-12-21T03:24:12.670Z,76.41
2018-12-21T03:26:42.920Z,76.48
2018-12-21T03:29:13.194Z,76.75
2018-12-21T03:31:43.349Z,76.31
2018-12-21T03:34:13.506Z,76.57
2018-12-21T03:36:43.724Z,76.81
2018-12-21T03:39:14.747Z,77.08
2018-12-21T03:41:44.912Z,77.50
2018-12-21T03:44:15.164Z,77.40
2018-12-21T03:46:45.324Z,77.64
2018-12-21T03:49:15.585Z,78.04
2018-12-21T03:51:45.964Z,77.83
2018-12-21T03:54:16.288Z,77.40
2018-12-21T03:56:46.693Z,77.35
2018-12-21T03:59:16.959Z,77.24
2018-12-21T04:01:47.189Z,76.63
2018-12-21T04:04:17.555Z,77.03
2018-12-21T04:06:47.901Z,75.94
2018-12-21T04:09:18.083Z,76.15
2018-12-21T04:11:48.383Z,76.74
2018-12-21T04:14:18.800Z,76.63
2018-12-21T04:16:50.318Z,76.92
2018-12-21T04:19:20.567Z,76.79
2018-12-21T04:21:50.940Z,77.17
2018-12-21T04:24:21.224Z,77.18
2018-12-21T04:26:52.823Z,77.29
2018-12-21T04:29:23.104Z,77.64
2018-12-21T04:31:53.291Z,78.25
2018-12-21T04:34:23.557Z,78.59
2018-12-21T04:36:54.969Z,78.24
2018-12-21T04:39:25.224Z,77.60
2018-12-21T04:41:55.489Z,77.59
2018-12-21T04:44:26.250Z,78.11
2018-12-21T04:46:57.192Z,77.94
2018-12-21T04:49:27.361Z,77.40
2018-12-21T04:51:57.690Z,76.75
2018-12-21T04:54:28.307Z,76.91
2018-12-21T04:56:58.731Z,77.40
2018-12-21T04:59:28.952Z,77.04
2018-12-21T05:01:59.201Z,76.07
2018-12-21T05:04:29.544Z,76.57
2018-12-21T05:07:00.098Z,76.45
2018-12-21T05:09:31.364Z,75.32
2018-12-21T05:12:01.844Z,75.07
2018-12-21T05:14:33.726Z,74.37
2018-12-21T05:17:03.899Z,75.20
2018-12-21T05:19:34.816Z,75.06
2018-12-21T05:22:05.746Z,76.05
2018-12-21T05:24:36.390Z,76.78
2018-12-21T05:27:07.433Z,76.76
2018-12-21T05:29:39.596Z,76.25
2018-12-21T05:32:11.327Z,76.24
2018-12-21T05:34:42.045Z,76.53
2018-12-21T05:37:13.364Z,76.22
2018-12-21T05:39:44.402Z,76.15
2018-12-21T05:42:14.702Z,75.52
2018-12-21T05:44:45.345Z,74.98
2018-12-21T05:47:17.869Z,74.11
2018-12-21T05:49:48.579Z,73.98
2018-12-21T05:52:19.294Z,73.89
2018-12-21T05:54:50.065Z,73.94
2018-12-21T05:57:20.731Z,73.33
2018-12-21T05:59:52.201Z,74.02
2018-12-21T06:02:24.339Z,73.89
2018-12-21T06:04:55.530Z,73.71
2018-12-21T06:07:26.145Z,74.24
2018-12-21T06:09:56.466Z,74.22
2018-12-21T06:12:27.176Z,73.84
2018-12-21T06:14:59.011Z,73.64
2018-12-21T06:17:29.791Z,73.50
2018-12-21T06:20:01.285Z,73.36
2018-12-21T06:22:32.482Z,73.22
2018-12-21T06:25:03.854Z,73.19
2018-12-21T06:27:34.952Z,73.80
2018-12-21T06:30:06.898Z,74.16
2018-12-21T06:32:40.022Z,75.12
2018-12-21T06:35:10.956Z,75.05
2018-12-21T06:37:41.148Z,75.74
2018-12-21T06:40:11.989Z,75.56
2018-12-21T06:42:42.985Z,75.34
2018-12-21T06:45:14.064Z,75.28
2018-12-21T06:47:45.046Z,75.63
2018-12-21T06:50:18.204Z,75.81
2018-12-21T06:52:50.122Z,75.89
2018-12-21T06:55:21.288Z,75.80
2018-12-21T06:57:52.300Z,75.24
2018-12-21T07:00:23.000Z,75.35
2018-12-21T07:02:53.734Z,75.55
2018-12-21T07:05:25.113Z,75.31
2018-12-21T07:07:56.080Z,75.76
2018-12-21T07:10:26.608Z,75.62
2018-12-21T07:12:57.387Z,75.04
2018-12-21T07:15:28.545Z,74.58
2018-12-21T07:18:01.925Z,73.89
2018-12-21T07:20:34.504Z,73.57
2018-12-21T07:23:04.720Z,72.92
2018-12-21T07:25:35.361Z,72.81
2018-12-21T07:28:05.748Z,71.66
2018-12-21T07:30:36.407Z,72.61
2018-12-21T07:33:07.542Z,72.04
2018-12-21T07:35:37.745Z,72.52
2018-12-21T07:38:08.196Z,72.36
2018-12-21T07:40:38.467Z,72.94
2018-12-21T07:43:10.085Z,73.10
2018-12-21T07:45:40.699Z,73.45
2018-12-21T07:48:11.530Z,73.54
2018-12-21T07:50:42.681Z,74.12
2018-12-21T07:53:13.238Z,73.97
2018-12-21T07:55:43.926Z,74.09
2018-12-21T07:58:14.652Z,73.67
2018-12-21T08:00:45.520Z,73.66
2018-12-21T08:03:16.820Z,73.53
2018-12-21T08:05:47.419Z,74.18
2018-12-21T08:08:19.264Z,74.24
2018-12-21T08:10:49.808Z,74.41
2018-12-21T08:13:20.581Z,73.10
2018-12-21T08:15:50.964Z,72.04
2018-12-21T08:18:22.971Z,71.87
2018-12-21T08:20:53.451Z,70.66
2018-12-21T08:23:24.202Z,71.01
2018-12-21T08:25:55.303Z,69.73
2018-12-21T08:28:25.997Z,69.28
2018-12-21T08:30:56.462Z,68.78
2018-12-21T08:33:27.581Z,68.55
2018-12-21T08:35:58.473Z,68.77
2018-12-21T08:38:29.277Z,69.09
2018-12-21T08:41:01.009Z,68.95
2018-12-21T08:43:31.775Z,69.20
2018-12-21T08:46:02.397Z,68.62
2018-12-21T08:48:32.951Z,68.72
2018-12-21T08:51:03.393Z,68.23
2018-12-21T08:53:36.099Z,68.74
2018-12-21T08:56:06.328Z,67.87
2018-12-21T08:58:37.799Z,67.85
2018-12-21T09:01:07.920Z,66.77
2018-12-21T09:03:38.955Z,67.20
2018-12-21T09:06:18.298Z,67.60
2018-12-21T09:08:42.905Z,68.11
2018-12-21T09:11:13.649Z,66.81
2018-12-21T09:13:43.913Z,66.86
2018-12-21T09:16:14.767Z,66.25
2018-12-21T09:18:45.338Z,67.74
2018-12-21T09:21:15.598Z,67.18
2018-12-21T09:23:46.769Z,66.33
2018-12-21T09:26:17.440Z,67.68
2018-12-21T09:28:47.807Z,66.51
2018-12-21T09:31:19.805Z,65.68
2018-12-21T09:33:50.475Z,64.68
2018-12-21T09:36:22.400Z,64.64
2018-12-21T09:38:53.519Z,64.97
2018-12-21T09:41:23.696Z,65.18
2018-12-21T09:43:54.842Z,64.19
2018-12-21T09:46:26.165Z,64.37
2018-12-21T09:48:57.085Z,65.32
2018-12-21T09:51:27.802Z,65.63
2018-12-21T09:53:59.015Z,65.94
2018-12-21T09:56:31.552Z,66.78
2018-12-21T09:59:03.564Z,66.11
2018-12-21T10:01:34.035Z,65.55
2018-12-21T10:04:05.234Z,63.83
2018-12-21T10:06:36.145Z,63.71
2018-12-21T10:09:08.959Z,62.31
2018-12-21T10:11:40.021Z,61.84
2018-12-21T10:14:11.034Z,60.60
2018-12-21T10:16:41.883Z,59.80
2018-12-21T10:19:14.285Z,59.78
2018-12-21T10:21:45.394Z,59.80
2018-12-21T10:24:18.611Z,58.98
2018-12-21T10:26:49.000Z,58.85
2018-12-21T10:29:19.931Z,58.03
2018-12-21T10:31:51.033Z,59.12
2018-12-21T10:34:22.765Z,58.94
2018-12-21T10:36:53.373Z,58.44
2018-12-21T10:39:24.769Z,57.81
2018-12-21T10:41:55.076Z,58.18
2018-12-21T10:44:26.077Z,57.43
2018-12-21T10:46:56.601Z,57.44
2018-12-21T10:49:31.872Z,56.74
2018-12-21T10:52:00.167Z,56.07
2018-12-21T10:54:30.659Z,57.07
2018-12-21T10:57:01.239Z,57.64
2018-12-21T10:59:31.862Z,57.22
2018-12-21T11:02:02.583Z,57.49
2018-12-21T11:04:33.495Z,58.39
2018-12-21T11:07:04.569Z,58.42
2018-12-21T11:09:34.799Z,59.78
2018-12-21T11:12:05.689Z,59.83
2018-12-21T11:14:36.541Z,60.52
2018-12-21T11:17:07.440Z,60.75
2018-12-21T11:19:38.020Z,61.72
2018-12-21T11:22:08.382Z,61.10
2018-12-21T11:24:39.151Z,61.84
2018-12-21T11:27:10.067Z,60.79
2018-12-21T11:29:44.642Z,61.43
2018-12-21T11:32:14.999Z,60.06
2018-12-21T11:34:45.135Z,59.59
2018-12-21T11:37:16.060Z,58.43
2018-12-21T11:39:50.800Z,56.79
2018-12-21T11:42:21.897Z,56.04
2018-12-21T11:44:53.016Z,56.90
2018-12-21T11:47:23.697Z,56.65
2018-12-21T11:49:54.789Z,57.51
2018-12-21T11:52:25.427Z,58.33
2018-12-21T11:54:55.680Z,59.79
2018-12-21T11:57:25.932Z,59.99
2018-12-21T11:59:56.759Z,61.12
2018-12-21T12:02:27.836Z,60.58
2018-12-21T12:04:58.693Z,60.93
2018-12-21T12:07:28.826Z,61.66
2018-12-21T12:09:59.853Z,62.87
2018-12-21T12:12:31.096Z,62.91
2018-12-21T12:15:02.337Z,64.05
2018-12-21T12:17:32.598Z,64.38
2018-12-21T12:20:03.961Z,64.63
2018-12-21T12:22:36.926Z,64.52
2018-12-21T12:25:07.745Z,63.20
2018-12-21T12:27:38.657Z,63.98
2018-12-21T12:30:10.564Z,63.85
2018-12-21T12:32:41.535Z,63.33
2018-12-21T12:35:12.218Z,64.02
2018-12-21T12:37:42.883Z,63.01
2018-12-21T12:40:13.814Z,63.79
2018-12-21T12:42:44.900Z,63.89
2018-12-21T12:45:15.323Z,65.27
2018-12-21T12:47:46.094Z,65.75
2018-12-21T12:50:16.677Z,65.97
2018-12-21T12:52:47.337Z,65.88
2018-12-21T12:55:17.982Z,66.98
2018-12-21T12:57:48.479Z,66.49
2018-12-21T13:00:19.305Z,65.67
2018-12-21T13:02:50.379Z,65.38
2018-12-21T13:05:21.100Z,64.52
2018-12-21T13:07:52.189Z,65.43
2018-12-21T13:10:23.130Z,64.29
2018-12-21T13:12:54.028Z,63.81
2018-12-21T13:15:25.384Z,63.69
2018-12-21T13:17:55.875Z,63.01
2018-12-21T13:20:28.390Z,62.62
2018-12-21T13:22:59.326Z,63.69
2018-12-21T13:25:30.302Z,64.23
2018-12-21T13:28:01.293Z,64.34
2018-12-21T13:30:31.858Z,64.96
2018-12-21T13:33:02.342Z,65.72
2018-12-21T13:35:33.164Z,65.03
2018-12-21T13:38:04.215Z,66.11
2018-12-21T13:40:36.200Z,65.98
2018-12-21T13:43:07.110Z,66.82
2018-12-21T13:45:37.935Z,67.43
2018-12-21T13:48:08.317Z,69.11
2018-12-21T13:50:38.884Z,68.97
2018-12-21T13:53:09.366Z,68.72
2018-12-21T13:55:39.907Z,69.00
2018-12-21T13:58:10.659Z,68.11
2018-12-21T14:00:40.907Z,68.73
2018-12-21T14:03:11.648Z,69.27
2018-12-21T14:05:42.266Z,69.60
2018-12-21T14:08:14.067Z,69.70
2018-12-21T14:10:44.993Z,70.02
2018-12-21T14:13:15.333Z,69.32
2018-12-21T14:15:46.270Z,70.79
2018-12-21T14:18:17.555Z,70.08
2018-12-21T14:20:48.901Z,70.48
2018-12-21T14:23:19.400Z,71.31
2018-12-21T14:25:50.010Z,71.42
2018-12-21T14:28:20.725Z,71.00
2018-12-21T14:30:51.014Z,70.89
2018-12-21T14:33:21.821Z,70.57
2018-12-21T14:35:52.600Z,71.41
2018-12-21T14:38:24.195Z,71.35
2018-12-21T14:40:55.066Z,71.31
2018-12-21T14:43:25.431Z,70.41
2018-12-21T14:45:56.184Z,71.06
2018-12-21T14:48:27.395Z,70.53
2018-12-21T14:50:59.469Z,70.28
2018-12-21T14:53:30.172Z,70.47
2018-12-21T14:56:00.756Z,70.35
2018-12-21T14:58:32.401Z,71.11
2018-12-21T15:01:03.341Z,70.89
2018-12-21T15:03:34.285Z,70.77
2018-12-21T15:06:04.805Z,70.80
2018-12-21T15:08:35.145Z,70.71
2018-12-21T15:11:06.362Z,71.32
2018-12-21T15:13:36.644Z,71.80
2018-12-21T15:16:07.653Z,71.77
2018-12-21T15:18:38.915Z,70.94
2018-12-21T15:21:10.151Z,70.69
2018-12-21T15:23:43.113Z,70.86
2018-12-21T15:26:14.213Z,70.77
2018-12-21T15:28:45.246Z,70.31
2018-12-21T15:31:16.928Z,71.00
2018-12-21T15:33:47.322Z,71.12
2018-12-21T15:36:17.844Z,72.00
2018-12-21T15:38:49.568Z,72.34
2018-12-21T15:41:21.783Z,72.88
2018-12-21T15:43:52.822Z,72.35
2018-12-21T15:46:23.032Z,73.01
2018-12-21T15:48:54.004Z,74.09
2018-12-21T15:51:25.016Z,73.75
2018-12-21T15:53:56.785Z,73.03
2018-12-21T15:56:27.942Z,72.62
2018-12-21T15:58:58.445Z,73.48
2018-12-21T16:01:36.904Z,72.52
2018-12-21T16:04:03.428Z,73.23
2018-12-21T16:06:35.662Z,72.62
2018-12-21T16:09:08.195Z,73.14
2018-12-21T16:11:38.740Z,73.59
2018-12-21T16:14:09.364Z,73.53
2018-12-21T16:16:40.188Z,74.63
2018-12-21T16:20:39.703Z,74.85
2018-12-21T16:23:09.904Z,74.49
2018-12-21T16:25:41.115Z,74.22
2018-12-21T16:28:11.608Z,73.54
2018-12-21T16:30:43.074Z,73.07
2018-12-21T16:33:14.152Z,73.05
2018-12-21T16:35:44.390Z,73.35
2018-12-21T16:38:16.022Z,73.71
2018-12-21T16:40:47.552Z,72.18
2018-12-21T16:43:19.217Z,71.82
2018-12-21T16:45:50.344Z,71.80
2018-12-21T16:48:21.731Z,72.03
2018-12-21T16:50:52.708Z,72.23
2018-12-21T16:53:25.265Z,71.83
2018-12-21T16:55:55.932Z,72.94
2018-12-21T16:58:27.904Z,72.90
2018-12-21T17:00:58.509Z,72.80
2018-12-21T17:03:29.078Z,73.60
2018-12-21T17:06:00.563Z,73.06
2018-12-21T17:08:31.667Z,72.83
2018-12-21T17:11:04.325Z,71.72
2018-12-21T17:13:34.836Z,71.90
2018-12-21T17:16:05.723Z,72.26
2018-12-21T17:18:37.170Z,72.00
2018-12-21T17:21:08.024Z,73.11
2018-12-21T17:23:38.773Z,72.17
2018-12-21T17:26:09.813Z,71.51
2018-12-21T17:28:40.763Z,71.84
2018-12-21T17:31:12.023Z,72.82
2018-12-21T17:33:42.774Z,72.59
2018-12-21T17:36:17.223Z,72.91
2018-12-21T17:38:48.147Z,73.09
2018-12-21T17:41:18.849Z,73.75
2018-12-21T17:43:49.457Z,73.56
2018-12-21T17:46:19.830Z,73.29
2018-12-21T17:48:50.200Z,72.62
2018-12-21T17:51:21.246Z,73.06
2018-12-21T17:53:51.855Z,72.71
2018-12-21T17:56:29.884Z,72.54
2018-12-21T17:58:55.064Z,72.12
2018-12-21T18:01:26.058Z,72.20
2018-12-21T18:04:02.828Z,72.62
2018-12-21T18:06:33.042Z,71.78
2018-12-21T18:09:03.853Z,71.75
2018-12-21T18:11:35.186Z,72.27
2018-12-21T18:14:05.981Z,72.40
2018-12-21T18:16:36.742Z,71.97
2018-12-21T18:19:07.645Z,71.49
2018-12-21T18:22:44.343Z,71.81
2018-12-21T18:25:17.945Z,71.69
2018-12-21T18:27:51.261Z,72.03
2018-12-21T18:30:33.213Z,71.84
2018-12-21T18:33:10.505Z,71.79
2018-12-21T18:35:38.480Z,72.54
2018-12-21T18:38:13.301Z,72.46
2018-12-21T18:40:44.570Z,71.73
2018-12-21T18:43:15.412Z,72.43
2018-12-21T18:45:46.185Z,73.07
2018-12-21T18:48:16.942Z,72.67
2018-12-21T18:50:47.483Z,72.43
2018-12-21T18:53:17.773Z,72.12
2018-12-21T18:55:50.916Z,72.01
2018-12-21T18:58:21.975Z,72.11
2018-12-21T19:00:52.577Z,71.23
2018-12-21T19:03:23.116Z,71.19
2018-12-21T19:05:53.409Z,71.15
2018-12-21T19:08:24.162Z,69.35
2018-12-21T19:10:54.311Z,69.02
2018-12-21T19:13:24.709Z,69.57
2018-12-21T19:15:55.237Z,69.21
2018-12-21T19:18:26.682Z,69.56
2018-12-21T19:20:56.987Z,69.50
2018-12-21T19:23:27.197Z,70.21
2018-12-21T19:25:57.454Z,70.50
2018-12-21T19:28:27.736Z,70.81
2018-12-21T19:30:58.041Z,70.73
2018-12-21T19:33:28.175Z,70.72
2018-12-21T19:35:59.278Z,71.08
2018-12-21T19:38:29.689Z,70.87
2018-12-21T19:41:00.073Z,70.57
2018-12-21T19:43:30.261Z,70.16
2018-12-21T19:46:01.168Z,70.36
2018-12-21T19:48:31.492Z,70.01
2018-12-21T19:51:01.621Z,71.17
2018-12-21T19:53:32.067Z,70.42
2018-12-21T19:56:48.414Z,70.95
2018-12-21T19:59:18.666Z,71.10
2018-12-21T20:01:50.015Z,70.19
2018-12-21T20:04:20.556Z,70.04
2018-12-21T20:06:53.261Z,70.17
2018-12-21T20:09:23.726Z,70.70
2018-12-21T20:11:53.909Z,70.14
2018-12-21T20:14:24.032Z,70.28
2018-12-21T20:16:54.545Z,70.57
2018-12-21T20:19:24.869Z,71.22
2018-12-21T20:21:55.235Z,70.58
2018-12-21T20:24:28.851Z,69.88
2018-12-21T20:27:13.079Z,70.40
2018-12-21T20:29:36.757Z,70.24
2018-12-21T20:32:07.143Z,70.37
2018-12-21T20:34:37.431Z,70.04
2018-12-21T20:37:07.782Z,69.88
2018-12-21T20:39:40.795Z,70.30
2018-12-21T20:42:11.177Z,69.71
2018-12-21T20:44:41.465Z,69.25
2018-12-21T20:47:11.969Z,70.14
2018-12-21T20:49:42.399Z,70.02
2018-12-21T20:52:12.791Z,70.05
2018-12-21T20:54:42.952Z,69.32
2018-12-21T20:57:21.656Z,70.14
2018-12-21T20:59:47.007Z,69.75
2018-12-21T21:02:17.878Z,70.24
2018-12-21T21:04:48.110Z,70.13
2018-12-21T21:07:18.362Z,69.82
2018-12-21T21:09:48.781Z,68.84
2018-12-21T21:12:18.991Z,70.63
2018-12-21T21:14:49.264Z,71.59
2018-12-21T21:17:19.866Z,71.38
2018-12-21T21:19:50.018Z,70.54
2018-12-21T21:22:20.103Z,70.47
2018-12-21T21:24:50.382Z,71.19
2018-12-21T21:27:20.567Z,70.56
2018-12-21T21:29:50.770Z,70.04
2018-12-21T21:32:21.090Z,70.40
2018-12-21T21:34:51.491Z,71.66
2018-12-21T21:37:21.824Z,70.89
2018-12-21T21:39:51.820Z,70.76
2018-12-21T21:42:21.985Z,71.31
2018-12-21T21:44:52.219Z,70.78
2018-12-21T21:47:22.738Z,71.27
2018-12-21T21:49:52.861Z,71.65
2018-12-21T21:52:22.949Z,71.85
2018-12-21T21:54:53.224Z,72.06
2018-12-21T21:57:27.361Z,72.14
2018-12-21T21:59:57.811Z,71.86
2018-12-21T22:02:28.182Z,72.13
2018-12-21T22:04:58.431Z,71.58
2018-12-21T22:07:28.624Z,72.31
2018-12-21T22:09:59.654Z,71.97
2018-12-21T22:12:29.832Z,72.63
2018-12-21T22:15:00.244Z,72.67
2018-12-21T22:17:30.485Z,73.00
2018-12-21T22:20:00.762Z,72.03
2018-12-21T22:22:30.876Z,71.92
2018-12-21T22:25:01.058Z,71.51
2018-12-21T22:27:31.261Z,71.73
2018-12-21T22:30:01.560Z,72.21
2018-12-21T22:32:31.975Z,72.49
2018-12-21T22:35:03.033Z,72.12
2018-12-21T22:37:33.140Z,72.37
2018-12-21T22:40:03.412Z,71.46
2018-12-21T22:42:33.644Z,70.11
2018-12-21T22:45:04.066Z,71.10
2018-12-21T22:47:34.156Z,70.19
2018-12-21T22:50:04.765Z,70.37
2018-12-21T22:52:34.964Z,70.49
2018-12-21T22:55:05.763Z,70.42
2018-12-21T22:57:35.954Z,71.38
2018-12-21T23:00:11.429Z,71.32
2018-12-21T23:02:42.883Z,71.34
2018-12-21T23:05:13.130Z,71.29
2018-12-21T23:07:43.293Z,71.70
2018-12-21T23:10:13.560Z,71.95
2018-12-21T23:12:43.939Z,72.03
2018-12-21T23:15:14.262Z,71.40
2018-12-21T23:17:44.829Z,70.98
2018-12-21T23:20:14.968Z,70.78
2018-12-21T23:22:45.175Z,71.97
2018-12-21T23:25:15.494Z,72.06
2018-12-21T23:27:45.584Z,70.87
2018-12-21T23:30:15.793Z,71.24
2018-12-21T23:32:46.207Z,70.92
2018-12-21T23:35:16.362Z,71.45
2018-12-21T23:37:47.740Z,71.90
2018-12-21T23:40:17.998Z,71.82
2018-12-21T23:42:48.170Z,72.50
2018-12-21T23:45:18.374Z,73.10
2018-12-21T23:47:48.549Z,71.75
2018-12-21T23:50:18.766Z,73.14
2018-12-21T23:52:49.333Z,72.44
2018-12-21T23:55:19.576Z,72.61
2018-12-21T23:57:49.819Z,73.01
